createdAt,value
2023-05-13T00:00:50.035Z,44.89
2023-05-13T00:03:18.642Z,45.03
2023-05-13T00:05:46.978Z,45.27
2023-05-13T00:08:14.987Z,45.41
2023-05-13T00:10:42.893Z,45.43
2023-05-13T00:13:10.870Z,45.64
2023-05-13T00:15:38.798Z,45.81
2023-05-13T00:18:06.980Z,45.77
2023-05-13T00:20:34.905Z,45.72
2023-05-13T00:23:03.389Z,45.65
2023-05-13T00:25:31.371Z,45.72
2023-05-13T00:27:59.366Z,45.83
2023-05-13T00:30:27.304Z,45.90
2023-05-13T00:32:55.445Z,45.88
2023-05-13T00:35:23.441Z,45.99
2023-05-13T00:37:51.328Z,46.10
2023-05-13T00:40:24.570Z,46.29
2023-05-13T00:42:53.983Z,46.43
2023-05-13T00:45:21.914Z,46.76
2023-05-13T00:47:50.361Z,46.77
2023-05-13T00:50:18.749Z,46.78
2023-05-13T00:52:49.876Z,46.89
2023-05-13T00:55:17.916Z,46.93
2023-05-13T00:57:45.883Z,46.99
2023-05-13T01:00:14.380Z,47.08
2023-05-13T01:02:57.340Z,47.31
2023-05-13T01:05:35.318Z,47.36
2023-05-13T01:08:06.188Z,47.58
2023-05-13T01:10:49.852Z,47.69
2023-05-13T01:13:24.783Z,47.63
2023-05-13T01:16:10.496Z,47.72
2023-05-13T01:18:43.783Z,47.90
2023-05-13T01:21:12.516Z,48.04
2023-05-13T01:23:40.509Z,47.98
2023-05-13T01:26:08.634Z,48.11
2023-05-13T01:28:36.877Z,47.95
2023-05-13T01:31:06.227Z,47.94
2023-05-13T01:33:34.331Z,48.10
2023-05-13T01:36:03.215Z,48.30
2023-05-13T01:38:33.026Z,48.53
2023-05-13T01:41:01.394Z,48.66
2023-05-13T01:43:31.459Z,48.78
2023-05-13T01:46:01.028Z,48.96
2023-05-13T01:48:29.101Z,48.93
2023-05-13T01:50:58.411Z,49.00
2023-05-13T01:53:26.954Z,49.22
2023-05-13T01:55:54.819Z,49.25
2023-05-13T01:58:22.956Z,49.30
2023-05-13T02:00:51.029Z,49.59
2023-05-13T02:03:19.456Z,49.66
2023-05-13T02:05:49.026Z,49.68
2023-05-13T02:08:16.909Z,49.88
2023-05-13T02:10:45.300Z,50.08
2023-05-13T02:13:13.250Z,50.00
2023-05-13T02:15:41.724Z,50.02
2023-05-13T02:18:10.434Z,50.08
2023-05-13T02:20:38.456Z,50.31
2023-05-13T02:23:07.005Z,50.36
2023-05-13T02:25:36.836Z,50.56
2023-05-13T02:28:04.940Z,50.64
2023-05-13T02:30:33.053Z,50.84
2023-05-13T02:33:01.652Z,50.86
2023-05-13T02:35:30.148Z,51.21
2023-05-13T02:37:58.817Z,51.20
2023-05-13T02:40:27.545Z,51.26
2023-05-13T02:42:55.877Z,51.52
2023-05-13T02:45:26.110Z,51.77
2023-05-13T02:47:54.399Z,51.86
2023-05-13T02:50:23.272Z,51.77
2023-05-13T02:52:51.901Z,51.85
2023-05-13T02:55:20.075Z,52.02
2023-05-13T02:57:48.048Z,52.00
2023-05-13T03:00:16.760Z,52.11
2023-05-13T03:02:44.783Z,52.25
2023-05-13T03:05:12.767Z,52.55
2023-05-13T03:07:40.764Z,52.72
2023-05-13T03:10:09.290Z,52.75
2023-05-13T03:12:37.203Z,52.77
2023-05-13T03:15:05.337Z,52.96
2023-05-13T03:17:33.602Z,53.03
2023-05-13T03:20:01.642Z,53.04
2023-05-13T03:22:29.896Z,53.20
2023-05-13T03:24:58.611Z,53.31
2023-05-13T03:27:33.342Z,53.46
2023-05-13T03:30:01.317Z,53.61
2023-05-13T03:32:32.013Z,53.80
2023-05-13T03:35:03.187Z,53.87
2023-05-13T03:37:31.405Z,54.08
2023-05-13T03:39:59.384Z,54.22
2023-05-13T03:42:27.939Z,54.32
2023-05-13T03:44:57.240Z,54.34
2023-05-13T03:47:25.627Z,54.24
2023-05-13T03:49:54.637Z,54.16
2023-05-13T03:52:23.213Z,54.18
2023-05-13T03:54:51.197Z,54.35
2023-05-13T03:57:19.248Z,54.39
2023-05-13T03:59:47.611Z,54.65
2023-05-13T04:02:15.525Z,54.73
2023-05-13T04:04:43.474Z,54.57
2023-05-13T04:07:11.385Z,54.57
2023-05-13T04:09:39.411Z,54.21
2023-05-13T04:12:07.534Z,54.04
2023-05-13T04:14:35.444Z,53.89
2023-05-13T04:17:04.150Z,53.56
2023-05-13T04:19:32.193Z,53.61
2023-05-13T04:22:00.289Z,53.51
2023-05-13T04:24:28.145Z,53.14
2023-05-13T04:26:56.189Z,52.81
2023-05-13T04:29:24.925Z,52.67
2023-05-13T04:31:52.924Z,52.15
2023-05-13T04:34:21.326Z,52.24
2023-05-13T04:36:49.760Z,52.08
2023-05-13T04:39:17.710Z,51.66
2023-05-13T04:41:46.353Z,50.99
2023-05-13T04:44:14.394Z,50.57
2023-05-13T04:46:45.010Z,50.21
2023-05-13T04:49:13.104Z,49.68
2023-05-13T04:51:41.713Z,49.56
2023-05-13T04:54:10.202Z,49.41
2023-05-13T04:56:38.176Z,49.49
2023-05-13T04:59:06.133Z,49.33
2023-05-13T05:01:34.184Z,49.31
2023-05-13T05:04:02.727Z,49.42
2023-05-13T05:06:32.603Z,49.28
2023-05-13T05:09:01.231Z,49.15
2023-05-13T05:11:29.300Z,49.11
2023-05-13T05:13:57.745Z,49.10
2023-05-13T05:16:25.776Z,49.26
2023-05-13T05:18:53.806Z,49.18
2023-05-13T05:21:21.864Z,49.20
2023-05-13T05:23:50.616Z,49.29
2023-05-13T05:26:19.808Z,49.23
2023-05-13T05:28:48.618Z,49.50
2023-05-13T05:31:18.293Z,49.76
2023-05-13T05:33:46.309Z,49.36
2023-05-13T05:36:14.244Z,49.72
2023-05-13T05:38:42.194Z,49.56
2023-05-13T05:41:11.032Z,49.54
2023-05-13T05:43:39.003Z,49.72
2023-05-13T05:46:07.125Z,49.83
2023-05-13T05:48:35.182Z,49.55
2023-05-13T05:51:04.224Z,49.42
2023-05-13T05:53:37.637Z,49.22
2023-05-13T05:56:06.894Z,49.36
2023-05-13T05:58:36.019Z,49.19
2023-05-13T06:01:04.061Z,49.10
2023-05-13T06:03:32.226Z,49.14
2023-05-13T06:06:00.415Z,48.97
2023-05-13T06:08:30.464Z,48.90
2023-05-13T06:10:59.446Z,48.98
2023-05-13T06:13:27.605Z,48.87
2023-05-13T06:15:56.451Z,48.88
2023-05-13T06:18:24.630Z,48.93
2023-05-13T06:20:52.559Z,49.02
2023-05-13T06:23:20.502Z,48.94
2023-05-13T06:25:48.507Z,48.76
2023-05-13T06:28:16.556Z,48.80
2023-05-13T06:30:46.030Z,48.97
2023-05-13T06:33:14.057Z,49.29
2023-05-13T06:35:42.310Z,49.38
2023-05-13T06:38:13.247Z,49.24
2023-05-13T06:40:41.416Z,49.07
2023-05-13T06:43:09.439Z,49.03
2023-05-13T06:45:40.366Z,49.11
2023-05-13T06:48:08.661Z,49.17
2023-05-13T06:50:38.167Z,49.42
2023-05-13T06:53:06.155Z,49.23
2023-05-13T06:55:35.993Z,48.86
2023-05-13T06:58:03.924Z,48.57
2023-05-13T07:00:31.858Z,48.32
2023-05-13T07:02:59.974Z,48.33
2023-05-13T07:05:27.930Z,48.43
2023-05-13T07:07:55.925Z,48.55
2023-05-13T07:10:24.244Z,48.48
2023-05-13T07:12:52.681Z,48.67
2023-05-13T07:15:21.234Z,48.67
2023-05-13T07:17:49.531Z,48.52
2023-05-13T07:20:22.230Z,48.42
2023-05-13T07:22:51.250Z,48.52
2023-05-13T07:25:19.246Z,48.28
2023-05-13T07:27:47.939Z,48.66
2023-05-13T07:30:16.111Z,48.43
2023-05-13T07:32:44.308Z,48.51
2023-05-13T07:35:12.422Z,48.04
2023-05-13T07:37:40.486Z,47.78
2023-05-13T07:40:09.088Z,47.65
2023-05-13T07:42:37.602Z,47.64
2023-05-13T07:45:06.678Z,47.69
2023-05-13T07:47:34.829Z,46.99
2023-05-13T07:50:02.889Z,46.89
2023-05-13T07:52:31.805Z,46.88
2023-05-13T07:54:59.692Z,46.88
2023-05-13T07:57:27.681Z,47.00
2023-05-13T07:59:55.718Z,46.85
2023-05-13T08:02:24.554Z,46.85
2023-05-13T08:04:52.548Z,46.81
2023-05-13T08:07:20.607Z,46.64
2023-05-13T08:09:48.522Z,46.50
2023-05-13T08:12:16.433Z,46.84
2023-05-13T08:14:44.310Z,46.79
2023-05-13T08:17:12.186Z,46.58
2023-05-13T08:19:40.441Z,46.50
2023-05-13T08:22:08.379Z,46.54
2023-05-13T08:24:36.309Z,46.70
2023-05-13T08:27:05.827Z,46.66
2023-05-13T08:29:33.720Z,46.58
2023-05-13T08:32:01.723Z,46.55
2023-05-13T08:34:29.708Z,46.52
2023-05-13T08:36:57.544Z,46.41
2023-05-13T08:39:25.574Z,46.74
2023-05-13T08:41:56.938Z,46.49
2023-05-13T08:44:28.764Z,46.60
2023-05-13T08:47:18.724Z,46.68
2023-05-13T08:49:47.062Z,46.42
2023-05-13T08:52:14.958Z,46.40
2023-05-13T08:54:44.207Z,46.18
2023-05-13T08:57:12.132Z,46.20
2023-05-13T08:59:40.373Z,46.18
2023-05-13T09:02:10.427Z,46.30
2023-05-13T09:04:41.277Z,45.66
2023-05-13T09:07:09.846Z,45.72
2023-05-13T09:09:38.060Z,46.24
2023-05-13T09:12:06.216Z,45.99
2023-05-13T09:14:34.679Z,45.72
2023-05-13T09:17:02.615Z,45.78
2023-05-13T09:19:31.230Z,45.66
2023-05-13T09:21:59.449Z,45.78
2023-05-13T09:24:27.862Z,45.41
2023-05-13T09:26:55.747Z,45.41
2023-05-13T09:29:24.771Z,45.68
2023-05-13T09:31:58.181Z,45.40
2023-05-13T09:34:27.008Z,45.37
2023-05-13T09:37:03.250Z,45.38
2023-05-13T09:39:34.337Z,45.12
2023-05-13T09:42:04.669Z,45.03
2023-05-13T09:44:34.100Z,44.76
2023-05-13T09:47:02.930Z,44.61
2023-05-13T09:49:31.863Z,44.62
2023-05-13T09:51:59.919Z,44.08
2023-05-13T09:54:34.362Z,44.17
2023-05-13T09:57:03.160Z,44.14
2023-05-13T09:59:36.821Z,43.89
2023-05-13T10:02:07.112Z,43.69
2023-05-13T10:04:35.439Z,43.71
2023-05-13T10:07:05.131Z,43.57
2023-05-13T10:09:37.407Z,43.54
2023-05-13T10:12:08.606Z,43.59
2023-05-13T10:14:37.463Z,43.69
2023-05-13T10:17:06.630Z,43.54
2023-05-13T10:19:35.294Z,43.41
2023-05-13T10:22:03.654Z,42.97
2023-05-13T10:24:32.604Z,42.83
2023-05-13T10:27:01.880Z,43.01
2023-05-13T10:29:30.112Z,42.60
2023-05-13T10:31:59.898Z,42.48
2023-05-13T10:34:28.777Z,42.63
2023-05-13T10:37:06.190Z,42.70
2023-05-13T10:40:06.633Z,42.61
2023-05-13T10:42:43.133Z,42.55
2023-05-13T10:45:11.432Z,42.43
2023-05-13T10:47:39.648Z,42.28
2023-05-13T10:50:23.469Z,42.10
2023-05-13T10:52:56.099Z,42.23
2023-05-13T10:55:26.200Z,42.16
2023-05-13T10:58:13.297Z,42.28
2023-05-13T11:00:45.671Z,42.33
2023-05-13T11:03:16.622Z,42.14
2023-05-13T11:05:58.726Z,41.89
2023-05-13T11:08:40.365Z,41.56
2023-05-13T11:11:23.585Z,41.26
2023-05-13T11:13:53.313Z,41.34
2023-05-13T11:16:23.175Z,41.49
2023-05-13T11:18:53.106Z,41.63
2023-05-13T11:21:39.560Z,41.28
2023-05-13T11:24:08.232Z,41.02
2023-05-13T11:26:54.361Z,41.20
2023-05-13T11:29:29.897Z,41.12
2023-05-13T11:32:00.523Z,41.20
2023-05-13T11:34:29.733Z,41.01
2023-05-13T11:37:04.127Z,40.40
2023-05-13T11:39:33.121Z,40.14
2023-05-13T11:42:02.999Z,39.86
2023-05-13T11:44:31.134Z,39.71
2023-05-13T11:47:00.893Z,39.74
2023-05-13T11:49:34.646Z,39.80
2023-05-13T11:52:04.511Z,39.64
2023-05-13T11:54:32.709Z,39.59
2023-05-13T11:57:00.839Z,39.47
2023-05-13T11:59:35.869Z,39.49
2023-05-13T12:02:06.798Z,39.39
2023-05-13T12:04:35.464Z,39.06
2023-05-13T12:07:03.667Z,38.87
2023-05-13T12:09:31.528Z,39.01
2023-05-13T12:11:59.615Z,39.07
2023-05-13T12:14:27.965Z,38.78
2023-05-13T12:16:57.401Z,39.10
2023-05-13T12:19:25.423Z,38.87
2023-05-13T12:21:53.473Z,38.82
2023-05-13T12:24:22.207Z,38.98
2023-05-13T12:26:50.437Z,38.97
2023-05-13T12:29:18.362Z,38.81
2023-05-13T12:32:04.118Z,38.74
2023-05-13T12:34:33.845Z,38.62
2023-05-13T12:37:14.637Z,38.81
2023-05-13T12:39:42.941Z,38.98
2023-05-13T12:42:18.317Z,39.23
2023-05-13T12:44:47.145Z,39.88
2023-05-13T12:47:19.884Z,40.52
2023-05-13T12:49:54.963Z,40.91
2023-05-13T12:52:22.918Z,40.96
2023-05-13T12:54:50.891Z,41.17
2023-05-13T12:57:20.604Z,41.29
2023-05-13T12:59:48.674Z,41.63
2023-05-13T13:02:16.571Z,41.45
2023-05-13T13:04:44.514Z,41.76
2023-05-13T13:07:14.730Z,42.18
2023-05-13T13:09:42.859Z,42.00
2023-05-13T13:12:10.932Z,41.64
2023-05-13T13:14:38.798Z,41.62
2023-05-13T13:17:07.130Z,41.77
2023-05-13T13:19:35.043Z,41.50
2023-05-13T13:22:03.196Z,41.46
2023-05-13T13:24:31.577Z,41.09
2023-05-13T13:26:59.507Z,41.25
2023-05-13T13:29:27.383Z,41.51
2023-05-13T13:31:55.328Z,42.29
2023-05-13T13:34:23.272Z,42.13
2023-05-13T13:36:51.236Z,42.34
2023-05-13T13:39:19.294Z,42.27
2023-05-13T13:41:47.349Z,43.01
2023-05-13T13:44:15.413Z,43.12
2023-05-13T13:46:43.557Z,42.85
2023-05-13T13:49:20.335Z,42.86
2023-05-13T13:51:53.881Z,42.97
2023-05-13T13:54:21.835Z,43.03
2023-05-13T13:56:49.871Z,43.25
2023-05-13T13:59:19.337Z,43.15
2023-05-13T14:01:47.500Z,43.20
2023-05-13T14:04:19.880Z,43.27
2023-05-13T14:06:47.864Z,43.01
2023-05-13T14:09:16.209Z,43.10
2023-05-13T14:11:44.257Z,43.16
2023-05-13T14:14:12.341Z,42.85
2023-05-13T14:16:40.398Z,43.09
2023-05-13T14:19:08.586Z,43.21
2023-05-13T14:21:36.543Z,42.87
2023-05-13T14:24:04.642Z,42.77
2023-05-13T14:26:32.596Z,42.88
2023-05-13T14:29:00.484Z,42.78
2023-05-13T14:31:28.510Z,42.93
2023-05-13T14:33:56.770Z,42.65
2023-05-13T14:36:26.686Z,42.62
2023-05-13T14:38:54.776Z,42.56
2023-05-13T14:41:23.240Z,42.67
2023-05-13T14:43:51.615Z,42.70
2023-05-13T14:46:19.624Z,42.63
2023-05-13T14:48:47.694Z,42.72
2023-05-13T14:51:15.659Z,43.06
2023-05-13T14:53:43.616Z,43.22
2023-05-13T14:56:11.635Z,43.25
2023-05-13T14:58:39.584Z,43.40
2023-05-13T15:01:07.525Z,43.38
2023-05-13T15:03:35.552Z,43.68
2023-05-13T15:06:03.725Z,43.33
2023-05-13T15:08:31.846Z,43.57
2023-05-13T15:11:00.453Z,43.68
2023-05-13T15:13:29.784Z,43.72
2023-05-13T15:15:57.668Z,43.69
2023-05-13T15:18:25.647Z,43.77
2023-05-13T15:20:53.566Z,43.99
2023-05-13T15:23:21.529Z,44.00
2023-05-13T15:25:49.548Z,43.80
2023-05-13T15:28:17.466Z,43.99
2023-05-13T15:30:45.519Z,43.87
2023-05-13T15:33:13.559Z,43.69
2023-05-13T15:35:42.532Z,43.75
2023-05-13T15:38:10.865Z,43.67
2023-05-13T15:40:39.251Z,43.71
2023-05-13T15:43:07.126Z,43.67
2023-05-13T15:45:35.121Z,43.44
2023-05-13T15:48:03.161Z,43.59
2023-05-13T15:50:31.201Z,43.80
2023-05-13T15:52:59.431Z,43.78
2023-05-13T15:55:27.405Z,43.99
2023-05-13T15:57:55.357Z,43.97
2023-05-13T16:00:24.681Z,43.70
2023-05-13T16:02:52.925Z,43.71
2023-05-13T16:05:21.092Z,43.60
2023-05-13T16:07:49.027Z,43.74
2023-05-13T16:10:16.998Z,43.69
2023-05-13T16:12:44.963Z,43.65
2023-05-13T16:15:12.886Z,43.67
2023-05-13T16:17:43.413Z,43.83
2023-05-13T16:20:12.041Z,43.73
2023-05-13T16:22:40.135Z,43.73
2023-05-13T16:25:10.387Z,43.82
2023-05-13T16:27:39.633Z,43.90
2023-05-13T16:30:08.015Z,43.84
2023-05-13T16:32:36.562Z,43.87
2023-05-13T16:35:05.711Z,43.89
2023-05-13T16:37:36.706Z,43.75
2023-05-13T16:40:05.404Z,43.69
2023-05-13T16:42:33.330Z,43.95
2023-05-13T16:45:01.759Z,44.12
2023-05-13T16:47:29.882Z,44.14
2023-05-13T16:49:57.858Z,44.13
2023-05-13T16:52:26.098Z,44.08
2023-05-13T16:54:56.591Z,44.18
2023-05-13T16:57:25.786Z,44.28
2023-05-13T16:59:53.675Z,44.48
2023-05-13T17:02:21.743Z,44.43
2023-05-13T17:04:49.812Z,44.34
2023-05-13T17:07:17.790Z,44.38
2023-05-13T17:09:45.882Z,44.37
2023-05-13T17:12:13.854Z,44.58
2023-05-13T17:14:41.891Z,44.80
2023-05-13T17:17:09.979Z,44.86
2023-05-13T17:19:38.125Z,44.93
2023-05-13T17:22:06.093Z,45.11
2023-05-13T17:24:34.089Z,45.30
2023-05-13T17:27:02.053Z,45.58
2023-05-13T17:29:30.052Z,45.81
2023-05-13T17:31:58.033Z,45.93
2023-05-13T17:34:26.017Z,46.09
2023-05-13T17:36:53.928Z,46.16
2023-05-13T17:39:21.866Z,46.35
2023-05-13T17:41:49.807Z,46.47
2023-05-13T17:44:19.989Z,46.57
2023-05-13T17:46:47.936Z,46.70
2023-05-13T17:49:16.014Z,46.94
2023-05-13T17:51:43.931Z,47.29
2023-05-13T17:54:12.077Z,47.68
2023-05-13T17:56:40.061Z,47.89
2023-05-13T17:59:08.018Z,48.03
2023-05-13T18:01:35.969Z,48.36
2023-05-13T18:04:03.926Z,48.45
2023-05-13T18:06:32.293Z,48.54
2023-05-13T18:09:00.408Z,48.75
2023-05-13T18:11:28.289Z,48.96
2023-05-13T18:13:56.325Z,49.10
2023-05-13T18:16:24.437Z,49.28
2023-05-13T18:18:52.436Z,49.55
2023-05-13T18:21:20.489Z,49.82
2023-05-13T18:23:48.388Z,50.11
2023-05-13T18:26:16.379Z,50.34
2023-05-13T18:28:46.901Z,50.34
2023-05-13T18:31:14.908Z,50.24
2023-05-13T18:33:42.852Z,50.36
2023-05-13T18:36:10.835Z,50.47
2023-05-13T18:38:39.614Z,50.60
2023-05-13T18:41:07.550Z,50.75
2023-05-13T18:43:35.759Z,50.88
2023-05-13T18:46:03.816Z,50.95
2023-05-13T18:48:31.776Z,50.95
2023-05-13T18:50:59.940Z,51.09
2023-05-13T18:53:28.035Z,51.17
2023-05-13T18:55:56.183Z,51.24
2023-05-13T18:58:24.859Z,51.31
2023-05-13T19:00:52.942Z,51.55
2023-05-13T19:03:20.988Z,51.71
2023-05-13T19:05:49.095Z,51.74
2023-05-13T19:08:17.055Z,52.03
2023-05-13T19:10:45.030Z,52.27
2023-05-13T19:13:14.632Z,52.47
2023-05-13T19:15:42.687Z,52.60
2023-05-13T19:18:10.868Z,52.74
2023-05-13T19:20:38.929Z,52.88
2023-05-13T19:23:06.940Z,53.02
2023-05-13T19:25:35.644Z,53.21
2023-05-13T19:28:03.758Z,53.32
2023-05-13T19:30:31.646Z,53.45
2023-05-13T19:32:59.802Z,53.58
2023-05-13T19:35:27.874Z,53.74
2023-05-13T19:37:56.400Z,53.96
2023-05-13T19:40:24.508Z,54.15
2023-05-13T19:42:52.837Z,54.27
2023-05-13T19:45:21.100Z,54.42
2023-05-13T19:47:49.703Z,54.61
2023-05-13T19:50:18.222Z,54.71
2023-05-13T19:52:46.191Z,54.88
2023-05-13T19:55:14.203Z,55.06
2023-05-13T19:57:42.998Z,55.16
2023-05-13T20:00:12.024Z,55.33
2023-05-13T20:02:40.321Z,55.45
2023-05-13T20:05:08.744Z,55.72
2023-05-13T20:07:36.748Z,55.77
2023-05-13T20:10:06.197Z,55.81
2023-05-13T20:12:34.157Z,55.99
2023-05-13T20:15:03.483Z,56.35
2023-05-13T20:17:31.891Z,56.40
2023-05-13T20:20:00.037Z,56.55
2023-05-13T20:22:28.076Z,56.75
2023-05-13T20:24:56.023Z,56.86
2023-05-13T20:27:23.894Z,56.96
2023-05-13T20:29:52.493Z,57.08
2023-05-13T20:32:24.834Z,57.17
2023-05-13T20:34:54.549Z,57.33
2023-05-13T20:37:23.925Z,57.40
2023-05-13T20:39:52.352Z,57.66
2023-05-13T20:42:22.405Z,57.71
2023-05-13T20:44:51.560Z,57.74
2023-05-13T20:47:20.626Z,57.90
2023-05-13T20:49:48.544Z,57.97
2023-05-13T20:52:16.755Z,58.18
2023-05-13T20:54:44.762Z,58.26
2023-05-13T20:57:12.661Z,58.38
2023-05-13T20:59:40.630Z,58.48
2023-05-13T21:02:08.617Z,58.47
2023-05-13T21:04:36.668Z,58.63
2023-05-13T21:07:06.764Z,58.69
2023-05-13T21:09:34.788Z,58.83
2023-05-13T21:12:02.717Z,59.04
2023-05-13T21:14:30.680Z,59.13
2023-05-13T21:17:02.881Z,59.22
2023-05-13T21:19:30.985Z,59.28
2023-05-13T21:22:01.630Z,59.48
2023-05-13T21:24:29.678Z,59.51
2023-05-13T21:26:57.538Z,59.57
2023-05-13T21:29:25.510Z,59.70
2023-05-13T21:31:54.573Z,59.75
2023-05-13T21:34:22.470Z,60.12
2023-05-13T21:36:50.733Z,60.17
2023-05-13T21:39:18.761Z,60.25
2023-05-13T21:41:47.709Z,60.46
2023-05-13T21:44:15.689Z,60.46
2023-05-13T21:46:43.616Z,60.45
2023-05-13T21:49:12.018Z,60.69
2023-05-13T21:51:40.129Z,60.75
2023-05-13T21:54:08.100Z,60.73
2023-05-13T21:56:36.047Z,60.81
2023-05-13T21:59:04.057Z,60.85
2023-05-13T22:01:32.021Z,60.83
2023-05-13T22:04:00.049Z,61.02
2023-05-13T22:06:28.105Z,61.09
2023-05-13T22:08:56.043Z,61.14
2023-05-13T22:11:23.870Z,61.23
2023-05-13T22:13:51.874Z,61.36
2023-05-13T22:16:19.955Z,61.45
2023-05-13T22:18:49.873Z,61.50
2023-05-13T22:21:17.947Z,61.68
2023-05-13T22:23:45.922Z,61.91
2023-05-13T22:26:13.826Z,62.07
2023-05-13T22:28:41.770Z,62.17
2023-05-13T22:31:09.676Z,62.25
2023-05-13T22:33:37.744Z,62.23
2023-05-13T22:36:05.847Z,62.21
2023-05-13T22:38:33.729Z,62.25
2023-05-13T22:41:01.792Z,62.40
2023-05-13T22:43:29.637Z,62.55
2023-05-13T22:45:57.593Z,62.68
2023-05-13T22:48:25.496Z,62.76
2023-05-13T22:50:54.221Z,62.76
2023-05-13T22:53:24.135Z,62.92
2023-05-13T22:55:52.252Z,62.93
2023-05-13T22:58:21.226Z,62.95
2023-05-13T23:00:49.965Z,63.08
2023-05-13T23:03:17.950Z,63.18
2023-05-13T23:05:45.961Z,63.10
2023-05-13T23:08:13.901Z,63.18
2023-05-13T23:10:41.856Z,63.33
2023-05-13T23:13:09.774Z,63.36
2023-05-13T23:15:37.696Z,63.39
2023-05-13T23:18:05.734Z,63.34
2023-05-13T23:20:33.716Z,63.47
2023-05-13T23:23:01.680Z,63.46
2023-05-13T23:25:29.643Z,63.65
2023-05-13T23:27:57.559Z,63.69
2023-05-13T23:30:25.588Z,63.71
2023-05-13T23:32:53.840Z,63.75
2023-05-13T23:35:21.913Z,64.04
2023-05-13T23:37:49.841Z,64.00
2023-05-13T23:40:17.867Z,64.09
2023-05-13T23:42:45.732Z,64.22
2023-05-13T23:45:13.638Z,64.34
2023-05-13T23:47:41.614Z,64.20
2023-05-13T23:50:09.971Z,64.23
2023-05-13T23:52:37.948Z,64.30
2023-05-13T23:55:06.485Z,64.37
2023-05-13T23:57:34.349Z,64.51
